This is the latest recevied weather packets stored in our database for station/object KD8DLP-13. If no packets are shown the sender has not sent any weather packets the latest 10 day(s).
| Time | Temp. | Humidity | Pressure | Rain* | Wind** | Luminosity | Snow |
|---|---|---|---|---|---|---|---|
| 1777653712 | 8.33° C | 58% | 1016.8 hPa | 0 mm | - | 344 W/m² | - |
| 1777653408 | 8.89° C | 57% | 1016.8 hPa | 0 mm | - | 394 W/m² | - |
| 1777653105 | 8.89° C | 59% | 1016.9 hPa | 0 mm | - | 297 W/m² | - |
| 1777652801 | 8.89° C | 56% | 1016.7 hPa | 0 mm | - | 293 W/m² | - |
| 1777652498 | 9.44° C | 56% | 1016.6 hPa | 0 mm | - | 319 W/m² | - |
| 1777652195 | 9.44° C | 55% | 1016.7 hPa | 0 mm | - | 389 W/m² | - |
| 1777651893 | 8.89° C | 56% | 1016.9 hPa | 0 mm | - | 326 W/m² | - |
| 1777651588 | 10° C | 54% | 1016.8 hPa | 0 mm | - | 371 W/m² | - |
| 1777651286 | 10° C | 55% | 1016.9 hPa | 0 mm | - | 372 W/m² | - |
| 1777650982 | 10° C | 55% | 1016.9 hPa | 0 mm | - | 510 W/m² | - |
| 1777650680 | 10.56° C | 55% | 1017 hPa | 0 mm | - | 351 W/m² | - |
| 1777650377 | 10° C | 57% | 1016.9 hPa | 0 mm | - | 593 W/m² | - |
| 1777650074 | 10° C | 56% | 1016.8 hPa | 0 mm | - | 507 W/m² | - |
| 1777649771 | 10° C | 58% | 1016.7 hPa | 0 mm | - | 593 W/m² | - |
| 1777649468 | 8.33° C | 62% | 1016.7 hPa | 0 mm | - | 352 W/m² | - |
| 1777649164 | 7.78° C | 63% | 1017.1 hPa | 0 mm | - | 512 W/m² | - |
| 1777648861 | 6.67° C | 67% | 1016.8 hPa | 0 mm | - | 553 W/m² | - |
| 1777648249 | 6.67° C | 70% | 1017 hPa | 0 mm | - | 232 W/m² | - |
| 1777647944 | 6.11° C | 71% | 1016.8 hPa | 0 mm | - | 262 W/m² | - |
| 1777647642 | 5.56° C | 71% | 1016.9 hPa | 0 mm | - | 216 W/m² | - |
| 1777647338 | 6.11° C | 73% | 1017 hPa | 0 mm | - | 175 W/m² | - |
| 1777647036 | 5.56° C | 74% | 1016.9 hPa | 0 mm | - | 164 W/m² | - |
| 1777646731 | 5.56° C | 75% | 1016.9 hPa | 0 mm | - | 157 W/m² | - |
| 1777646427 | 5.56° C | 74% | 1016.8 hPa | 0 mm | - | 163 W/m² | - |
| 1777646123 | 5.56° C | 74% | 1017 hPa | 0 mm | - | 142 W/m² | - |
* Rain latest hour (hover to see other rain measurements)
** Current wind speed in m/s (hover to see current wind gust speed)